Time;durP1;ratioP1;P1;durP2;ratioP2;P2;SDS_P1;SDS_P2;PMS_P1;PMS_P2;Temp;Humidity;BMP_temperature;BMP_pressure;BME280_temperature;BME280_humidity;BME280_pressure;Samples;Min_cycle;Max_cycle;Signal;HPM_P1;HPM_P2
2021/01/16 00:01:55;;;;;;;21.67;14.70;;;0.90;96.70;;;;;;5020962;28;20045;-83
2021/01/16 00:04:21;;;;;;;22.73;14.02;;;0.90;96.70;;;;;;5015520;28;20473;-82
2021/01/16 00:07:00;;;;;;;21.35;13.82;;;0.90;96.80;;;;;;5012690;28;20072;-83
2021/01/16 00:09:51;;;;;;;;;;;;;;;;;;;;;
2021/01/16 00:12:19;;;;;;;21.70;13.25;;;0.90;96.60;;;;;;5031425;28;20052;-82
2021/01/16 00:15:28;;;;;;;19.70;12.63;;;0.90;96.60;;;;;;5014481;28;20099;-85
2021/01/16 00:18:17;;;;;;;;;;;;;;;;;;;;;
2021/01/16 00:20:49;;;;;;;21.08;13.57;;;0.90;96.40;;;;;;4998110;28;20041;-79
2021/01/16 00:23:29;;;;;;;22.75;13.52;;;1.00;96.40;;;;;;4977465;28;20057;-81
2021/01/16 00:25:59;;;;;;;20.20;13.43;;;0.90;96.40;;;;;;4966331;28;20046;-81
2021/01/16 00:28:31;;;;;;;22.73;13.38;;;1.00;96.50;;;;;;4974766;28;20049;-82
2021/01/16 00:31:00;;;;;;;19.83;13.07;;;0.90;96.50;;;;;;4974735;28;20057;-84
2021/01/16 00:33:51;;;;;;;21.45;13.07;;;1.00;96.50;;;;;;4998303;28;20191;-82
2021/01/16 00:36:24;;;;;;;21.20;13.70;;;1.00;96.60;;;;;;4957928;28;20501;-82
2021/01/16 00:42:26;;;;;;;21.95;13.80;;;1.00;96.60;;;;;;4981338;28;20054;-83
2021/01/16 00:45:05;;;;;;;25.90;13.13;;;1.00;96.70;;;;;;4955617;28;20753;-81
2021/01/16 00:47:37;;;;;;;23.05;14.70;;;1.00;96.90;;;;;;4953542;28;20595;-82
2021/01/16 00:50:13;;;;;;;27.92;13.30;;;1.00;96.80;;;;;;5011919;28;20085;-82
2021/01/16 00:52:56;;;;;;;19.88;13.35;;;1.00;96.90;;;;;;5000466;28;20086;-81
2021/01/16 00:55:25;;;;;;;26.08;13.77;;;1.00;96.90;;;;;;5009341;28;20068;-80
2021/01/16 00:57:55;;;;;;;21.08;13.93;;;1.00;97.00;;;;;;5009204;28;20076;-81
2021/01/16 01:00:27;;;;;;;24.10;13.82;;;1.00;97.00;;;;;;4998213;28;20044;-82
2021/01/16 01:02:57;;;;;;;22.13;13.93;;;1.00;97.10;;;;;;4994254;28;20045;-81
2021/01/16 01:05:32;;;;;;;21.88;13.70;;;1.00;97.00;;;;;;4979278;28;20092;-79
2021/01/16 01:08:32;;;;;;;25.48;13.88;;;1.00;97.10;;;;;;4976401;28;20054;-81
2021/01/16 01:11:08;;;;;;;21.80;14.02;;;1.00;97.20;;;;;;4991506;28;20053;-84
2021/01/16 01:13:35;;;;;;;21.35;14.18;;;1.00;97.20;;;;;;5009080;28;20058;-81
2021/01/16 01:16:31;;;;;;;;;;;;;;;;;;;;;
2021/01/16 01:19:07;;;;;;;20.42;13.48;;;1.00;97.30;;;;;;5022291;28;20126;-80
2021/01/16 01:21:34;;;;;;;23.13;14.23;;;1.00;97.50;;;;;;4994948;28;20053;-81
2021/01/16 01:23:59;;;;;;;21.50;13.85;;;1.30;97.50;;;;;;5005151;28;20103;-81
2021/01/16 01:26:25;;;;;;;24.00;14.18;;;1.20;97.60;;;;;;5009734;28;20779;-82
2021/01/16 01:29:37;;;;;;;25.73;14.38;;;1.00;97.60;;;;;;5024669;28;20060;-83
2021/01/16 01:32:18;;;;;;;25.90;14.18;;;1.00;97.50;;;;;;4992398;28;20134;-81
2021/01/16 01:34:45;;;;;;;20.63;13.27;;;1.00;97.70;;;;;;4983213;28;20038;-82
2021/01/16 01:37:21;;;;;;;28.17;14.35;;;1.00;97.50;;;;;;5002847;28;20049;-82
2021/01/16 01:39:48;;;;;;;22.25;14.80;;;1.00;97.80;;;;;;4994416;28;20049;-82
2021/01/16 01:42:16;;;;;;;23.77;14.32;;;1.00;97.90;;;;;;5005731;28;20180;-83
2021/01/16 01:44:50;;;;;;;19.95;13.95;;;1.00;98.00;;;;;;5009325;28;20038;-81
2021/01/16 01:47:44;;;;;;;23.33;14.98;;;1.00;98.00;;;;;;4997889;28;20061;-81
2021/01/16 01:50:12;;;;;;;23.10;14.20;;;1.00;98.00;;;;;;5010526;28;20053;-83
2021/01/16 01:53:05;;;;;;;23.67;15.07;;;0.90;97.80;;;;;;5013755;28;20400;-81
2021/01/16 01:55:35;;;;;;;24.48;14.45;;;0.90;97.80;;;;;;5031877;28;20488;-82
2021/01/16 01:58:25;;;;;;;28.85;15.27;;;1.00;97.90;;;;;;5014396;28;20065;-82
2021/01/16 02:01:39;;;;;;;;;;;;;;;;;;;;;
2021/01/16 02:04:11;;;;;;;24.45;15.07;;;0.90;97.90;;;;;;5015158;28;20053;-81
2021/01/16 02:06:37;;;;;;;24.00;14.50;;;0.90;97.90;;;;;;5029693;28;20491;-81
2021/01/16 02:09:13;;;;;;;23.20;14.65;;;1.30;98.10;;;;;;5028042;28;20057;-79
2021/01/16 02:11:41;;;;;;;22.67;14.80;;;0.90;98.10;;;;;;5027947;28;20387;-81
2021/01/16 02:14:08;;;;;;;21.02;14.60;;;0.90;98.00;;;;;;5026558;28;20038;-80
2021/01/16 02:16:51;;;;;;;28.13;15.43;;;0.90;98.20;;;;;;5028674;28;20076;-83
2021/01/16 02:23:44;;;;;;;;;;;;;;;;;;;;;
2021/01/16 02:26:57;;;;;;;22.88;14.70;;;0.90;98.40;;;;;;5027070;28;20045;-81
2021/01/16 02:29:34;;;;;;;25.63;15.38;;;1.00;98.20;;;;;;5013904;28;20498;-83
2021/01/16 02:32:06;;;;;;;27.95;15.38;;;1.00;98.30;;;;;;5029686;28;20045;-80
2021/01/16 02:34:36;;;;;;;24.58;15.55;;;0.90;98.20;;;;;;5028628;28;20384;-82
2021/01/16 02:37:59;;;;;;;23.50;14.75;;;1.00;98.30;;;;;;5029937;28;20048;-82
2021/01/16 02:41:04;;;;;;;23.75;15.10;;;0.90;98.50;;;;;;4973322;28;20173;-82
2021/01/16 02:43:39;;;;;;;24.17;16.08;;;0.90;98.50;;;;;;4951718;28;20482;-83
2021/01/16 02:46:17;;;;;;;25.77;14.63;;;0.90;98.60;;;;;;4969307;28;20062;-80
2021/01/16 02:48:56;;;;;;;24.23;15.80;;;1.00;98.60;;;;;;4945896;28;20479;-83
2021/01/16 02:52:07;;;;;;;21.52;14.85;;;1.00;98.60;;;;;;4969097;28;20082;-82
2021/01/16 02:54:44;;;;;;;25.73;16.20;;;1.00;98.60;;;;;;4945229;28;20053;-82
2021/01/16 02:57:29;;;;;;;25.67;16.02;;;1.00;98.70;;;;;;4968140;28;20149;-82
2021/01/16 02:59:58;;;;;;;24.17;15.00;;;0.90;98.70;;;;;;4952654;28;20058;-83
2021/01/16 03:02:55;;;;;;;24.77;15.57;;;0.90;98.80;;;;;;4954314;28;20050;-81
2021/01/16 03:05:25;;;;;;;27.13;16.50;;;0.90;98.40;;;;;;4953579;28;20121;-82
2021/01/16 03:08:03;;;;;;;31.00;16.13;;;0.90;98.70;;;;;;4956057;28;20102;-84
2021/01/16 03:10:39;;;;;;;22.80;15.18;;;0.90;98.70;;;;;;4958598;28;20490;-82
2021/01/16 03:13:09;;;;;;;25.83;16.67;;;0.90;99.00;;;;;;4938916;28;20102;-81
2021/01/16 03:15:37;;;;;;;25.20;15.57;;;0.90;99.00;;;;;;4955160;28;20074;-81
2021/01/16 03:18:07;;;;;;;25.65;16.45;;;0.90;99.10;;;;;;5000223;28;20104;-82
2021/01/16 03:20:34;;;;;;;26.35;16.25;;;1.00;99.00;;;;;;4976800;28;20108;-82
2021/01/16 03:23:06;;;;;;;26.50;16.17;;;1.10;99.00;;;;;;4987681;28;20045;-81
2021/01/16 03:25:33;;;;;;;28.42;16.38;;;0.90;99.00;;;;;;4973842;28;20043;-80
2021/01/16 03:28:03;;;;;;;27.58;16.67;;;0.90;99.10;;;;;;4991266;28;20042;-81
2021/01/16 03:30:29;;;;;;;29.60;16.67;;;0.90;99.10;;;;;;5009410;28;20536;-81
2021/01/16 03:33:01;;;;;;;25.48;16.75;;;0.90;99.20;;;;;;4992368;28;20037;-82
2021/01/16 03:35:28;;;;;;;24.13;15.73;;;0.90;99.20;;;;;;5003212;28;20069;-83
2021/01/16 03:37:55;;;;;;;31.08;17.40;;;0.90;99.30;;;;;;4991223;28;20100;-81
2021/01/16 03:40:21;;;;;;;27.58;16.70;;;1.10;99.50;;;;;;5013577;28;20056;-83
2021/01/16 03:42:47;;;;;;;28.73;16.83;;;1.10;99.30;;;;;;5001106;28;20139;-83
2021/01/16 03:45:20;;;;;;;25.05;16.73;;;0.90;99.30;;;;;;5005749;28;20066;-81
2021/01/16 03:48:21;;;;;;;33.08;17.17;;;0.90;99.50;;;;;;5001654;28;20064;-81
2021/01/16 03:51:13;;;;;;;27.92;17.30;;;0.90;99.50;;;;;;5018411;28;20400;-81
2021/01/16 03:54:30;;;;;;;27.77;17.13;;;0.90;99.60;;;;;;5031483;28;20030;-80
2021/01/16 03:56:59;;;;;;;26.77;16.23;;;0.90;99.50;;;;;;4912925;29;20039;-80
2021/01/16 03:59:27;;;;;;;30.35;17.17;;;0.90;99.50;;;;;;4937903;29;20066;-82
2021/01/16 04:01:57;;;;;;;27.02;16.80;;;0.80;99.60;;;;;;4934885;29;20470;-81
2021/01/16 04:04:34;;;;;;;30.80;17.85;;;0.80;99.60;;;;;;4951907;28;20047;-81
2021/01/16 04:07:01;;;;;;;25.23;16.63;;;0.90;99.90;;;;;;4950247;29;20076;-80
2021/01/16 04:09:30;;;;;;;28.98;17.23;;;0.80;99.60;;;;;;4917864;29;20048;-80
2021/01/16 04:12:17;;;;;;;29.40;17.20;;;0.80;99.60;;;;;;4942537;29;20474;-81
2021/01/16 04:14:47;;;;;;;29.02;17.30;;;0.80;99.80;;;;;;4936079;29;20051;-81
2021/01/16 04:17:21;;;;;;;30.33;17.27;;;0.90;99.80;;;;;;4930904;28;20051;-82
2021/01/16 04:19:49;;;;;;;26.15;16.60;;;0.80;99.60;;;;;;4937314;29;20055;-81
2021/01/16 04:22:16;;;;;;;26.52;17.50;;;0.80;99.80;;;;;;4934859;29;20082;-80
2021/01/16 04:24:55;;;;;;;27.20;17.20;;;0.80;99.80;;;;;;4944968;28;20039;-81
2021/01/16 04:27:23;;;;;;;31.77;17.58;;;0.80;99.70;;;;;;4934095;28;20482;-82
2021/01/16 04:30:22;;;;;;;26.80;16.50;;;0.80;99.80;;;;;;4936610;29;20057;-81
2021/01/16 04:32:52;;;;;;;27.40;17.27;;;0.80;99.70;;;;;;4959376;28;20411;-80
2021/01/16 04:35:18;;;;;;;27.95;17.05;;;0.80;99.60;;;;;;5031435;28;20049;-80
2021/01/16 04:37:46;;;;;;;29.13;17.27;;;0.80;99.80;;;;;;5032469;28;20400;-80
2021/01/16 04:40:18;;;;;;;28.15;17.63;;;0.80;99.90;;;;;;5015856;28;20377;-81
2021/01/16 04:42:46;;;;;;;29.08;17.83;;;0.80;99.90;;;;;;5015085;28;20051;-79
2021/01/16 04:45:27;;;;;;;28.33;17.33;;;0.80;99.90;;;;;;5030461;28;20045;-83
2021/01/16 04:51:44;;;;;;;30.38;18.42;;;0.80;99.90;;;;;;5031255;28;20064;-82
2021/01/16 04:54:16;;;;;;;33.72;17.65;;;0.80;99.90;;;;;;5031635;28;20042;-81
2021/01/16 04:57:08;;;;;;;31.05;17.63;;;0.80;99.90;;;;;;5010656;28;20049;-79
2021/01/16 05:00:12;;;;;;;28.83;18.10;;;0.80;99.90;;;;;;4973334;28;20066;-82
2021/01/16 05:02:43;;;;;;;26.92;16.85;;;0.80;99.90;;;;;;4933051;29;20122;-82
2021/01/16 05:06:10;;;;;;;28.25;17.10;;;0.80;99.90;;;;;;4894216;29;20230;-79
2021/01/16 05:09:12;;;;;;;31.30;17.08;;;0.80;99.90;;;;;;4894748;29;20100;-81
2021/01/16 05:11:46;;;;;;;33.97;17.75;;;0.70;99.90;;;;;;4873424;29;20088;-79
2021/01/16 05:14:48;;;;;;;25.02;16.83;;;0.70;99.90;;;;;;4894475;29;20448;-81
2021/01/16 05:17:16;;;;;;;25.55;16.75;;;0.80;99.90;;;;;;4874639;29;20101;-80
2021/01/16 05:26:36;;;;;;;25.55;16.33;;;1.10;99.90;;;;;;4859162;29;20048;-79
2021/01/16 05:29:02;;;;;;;26.75;16.27;;;0.80;99.90;;;;;;4859475;29;20065;-79
2021/01/16 05:31:29;;;;;;;24.40;16.48;;;0.70;99.90;;;;;;4874659;29;20558;-81
2021/01/16 05:34:22;;;;;;;27.33;16.15;;;0.70;99.90;;;;;;4876027;29;20044;-81
2021/01/16 05:37:00;;;;;;;26.52;16.25;;;0.70;99.90;;;;;;4826166;29;20458;-79
2021/01/16 05:39:31;;;;;;;25.88;16.83;;;0.70;99.90;;;;;;4837946;29;20139;-82
2021/01/16 05:42:08;;;;;;;26.92;16.52;;;0.70;99.90;;;;;;4838578;29;20057;-83
2021/01/16 05:44:39;;;;;;;25.98;17.02;;;0.70;99.90;;;;;;4844425;29;20458;-81
2021/01/16 05:47:15;;;;;;;26.67;17.63;;;0.70;99.90;;;;;;4840210;29;20046;-81
2021/01/16 05:50:32;;;;;;;22.90;16.25;;;0.70;99.90;;;;;;4837179;29;20628;-81
2021/01/16 05:53:07;;;;;;;26.30;16.10;;;0.70;99.90;;;;;;4820120;29;20053;-81
2021/01/16 05:55:37;;;;;;;26.77;16.63;;;0.60;99.90;;;;;;4794418;29;20046;-78
2021/01/16 05:58:51;;;;;;;27.13;17.67;;;0.60;99.90;;;;;;4823464;29;20081;-78
2021/01/16 06:01:42;;;;;;;26.65;16.23;;;0.60;99.90;;;;;;4805495;29;20054;-79
2021/01/16 06:04:46;;;;;;;26.42;16.80;;;0.60;99.90;;;;;;4822907;29;20061;-80
2021/01/16 06:07:24;;;;;;;27.55;17.02;;;0.60;99.90;;;;;;4829085;29;20045;-81
2021/01/16 06:09:51;;;;;;;;;;;0.60;99.90;;;;;;4823658;29;20043;-81
2021/01/16 06:12:31;;;;;;;;;;;;;;;;;;;;;
2021/01/16 06:15:33;;;;;;;23.52;15.32;;;0.70;99.90;;;;;;4890995;29;20560;-80
2021/01/16 06:22:20;;;;;;;25.20;15.38;;;0.80;99.90;;;;;;4884626;29;20083;-82
2021/01/16 06:24:55;;;;;;;23.38;15.05;;;0.80;99.90;;;;;;4895741;29;20060;-79
2021/01/16 06:27:29;;;;;;;21.95;14.40;;;0.70;99.90;;;;;;4877872;29;20040;-78
2021/01/16 06:33:56;;;;;;;23.77;13.32;;;0.70;99.90;;;;;;4881026;29;20179;-80
2021/01/16 06:36:37;;;;;;;22.00;13.43;;;0.70;99.80;;;;;;4893436;29;20064;-80
2021/01/16 06:39:09;;;;;;;19.52;12.63;;;0.70;99.90;;;;;;4922834;29;20368;-82
2021/01/16 06:41:45;;;;;;;21.45;14.02;;;0.80;99.80;;;;;;4932120;29;20118;-80
2021/01/16 06:44:15;;;;;;;19.30;13.32;;;0.80;99.60;;;;;;4930874;29;20055;-78
2021/01/16 06:46:49;;;;;;;20.38;13.35;;;0.80;99.70;;;;;;4933244;29;20039;-80
2021/01/16 06:49:25;;;;;;;23.17;12.65;;;0.80;99.60;;;;;;4931886;29;20044;-81
2021/01/16 06:51:53;;;;;;;19.20;12.95;;;0.80;99.60;;;;;;4938058;28;20046;-82
2021/01/16 06:54:30;;;;;;;20.20;12.95;;;0.80;99.60;;;;;;4953543;28;20039;-80
2021/01/16 06:57:13;;;;;;;21.10;14.13;;;0.80;99.50;;;;;;4970021;28;20053;-81
2021/01/16 06:59:47;;;;;;;22.73;14.68;;;0.80;99.60;;;;;;4938288;28;20066;-80
2021/01/16 07:02:54;;;;;;;21.70;14.57;;;0.80;99.70;;;;;;4953844;28;20122;-81
2021/01/16 07:05:27;;;;;;;20.00;13.90;;;0.80;99.80;;;;;;4960770;28;20042;-82
2021/01/16 07:07:53;;;;;;;21.50;13.50;;;0.80;99.80;;;;;;4969946;28;20050;-81
2021/01/16 07:10:22;;;;;;;19.55;13.20;;;0.90;99.80;;;;;;4992130;28;20404;-82
2021/01/16 07:12:50;;;;;;;23.95;14.32;;;0.90;99.60;;;;;;5016840;28;20099;-81
2021/01/16 07:15:23;;;;;;;20.13;13.50;;;1.10;99.60;;;;;;5032254;28;20133;-82
2021/01/16 07:17:50;;;;;;;19.67;13.20;;;0.80;99.50;;;;;;5031795;28;20145;-83
2021/01/16 07:23:42;;;;;;;14.85;8.82;;;0.90;98.30;;;;;;5032864;28;20522;-81
2021/01/16 07:26:09;;;;;;;12.75;9.35;;;0.90;97.50;;;;;;5030724;28;20050;-79
2021/01/16 07:28:49;;;;;;;;;;;;;;;;;;;;;
2021/01/16 07:31:16;;;;;;;14.77;10.18;;;1.00;97.90;;;;;;5039764;28;20418;-81
2021/01/16 07:37:25;;;;;;;17.63;12.30;;;0.90;97.70;;;;;;5032049;28;20078;-82
2021/01/16 07:39:57;;;;;;;19.45;13.35;;;0.90;98.10;;;;;;5032949;28;20480;-81
2021/01/16 07:42:43;;;;;;;19.05;13.05;;;0.90;98.30;;;;;;5016992;28;20053;-82
2021/01/16 07:45:13;;;;;;;21.90;14.38;;;0.90;98.40;;;;;;5017129;28;20122;-81
2021/01/16 07:47:53;;;;;;;25.75;15.02;;;0.90;98.70;;;;;;5032691;28;20057;-83
2021/01/16 07:50:31;;;;;;;20.45;13.73;;;0.90;98.90;;;;;;5033314;28;20103;-81
2021/01/16 07:53:04;;;;;;;23.23;14.82;;;0.90;98.90;;;;;;5016276;28;20126;-82
2021/01/16 07:55:40;;;;;;;20.98;14.45;;;0.80;99.10;;;;;;5029707;28;20073;-81
2021/01/16 07:58:25;;;;;;;22.70;14.57;;;0.90;99.30;;;;;;5015620;28;20054;-80
2021/01/16 08:01:30;;;;;;;24.23;15.83;;;0.80;99.50;;;;;;5032409;28;20075;-81
2021/01/16 08:04:55;;;;;;;23.17;14.35;;;0.80;99.40;;;;;;4999469;28;20045;-78
2021/01/16 08:07:59;;;;;;;24.90;16.05;;;0.90;99.70;;;;;;4996437;28;20452;-81
2021/01/16 08:10:49;;;;;;;23.77;15.65;;;0.80;99.60;;;;;;4971716;28;20049;-79
2021/01/16 08:13:21;;;;;;;27.15;16.05;;;0.90;99.70;;;;;;4994732;28;20045;-82
2021/01/16 08:15:53;;;;;;;23.98;15.45;;;0.90;99.70;;;;;;4994946;28;20064;-81
2021/01/16 08:18:25;;;;;;;27.75;16.55;;;0.90;99.80;;;;;;5009590;28;20046;-80
2021/01/16 08:20:54;;;;;;;24.95;16.73;;;0.90;99.70;;;;;;5009126;28;20044;-81
2021/01/16 08:23:24;;;;;;;25.15;16.35;;;1.00;99.80;;;;;;5001649;28;20109;-81
2021/01/16 08:25:51;;;;;;;26.38;17.42;;;1.00;99.80;;;;;;5000560;28;20121;-82
2021/01/16 08:28:27;;;;;;;26.75;16.85;;;1.00;99.80;;;;;;5001625;28;20412;-82
2021/01/16 08:30:54;;;;;;;23.35;16.33;;;1.10;99.90;;;;;;5009950;28;20121;-83
2021/01/16 08:33:32;;;;;;;26.55;16.60;;;1.20;99.90;;;;;;5009174;28;20044;-80
2021/01/16 08:35:57;;;;;;;24.20;16.35;;;1.10;99.90;;;;;;4994991;28;20223;-82
2021/01/16 08:38:25;;;;;;;28.58;17.20;;;1.20;99.90;;;;;;5008898;28;20145;-83
2021/01/16 08:41:05;;;;;;;26.60;17.30;;;1.20;99.90;;;;;;4998266;28;20041;-81
2021/01/16 08:43:44;;;;;;;24.10;16.15;;;1.20;99.90;;;;;;5024488;28;20076;-85
2021/01/16 08:46:25;;;;;;;34.33;17.88;;;1.30;99.80;;;;;;5030639;28;20037;-82
2021/01/16 08:49:04;;;;;;;31.75;17.08;;;1.30;99.80;;;;;;5031021;28;20064;-83
2021/01/16 08:51:33;;;;;;;28.88;17.80;;;1.40;99.90;;;;;;5039757;28;20076;-83
2021/01/16 08:54:15;;;;;;;28.35;16.77;;;1.40;99.60;;;;;;4985009;28;20108;-81
2021/01/16 08:56:48;;;;;;;26.58;17.05;;;1.40;99.60;;;;;;5012058;28;20048;-83
2021/01/16 08:59:17;;;;;;;25.13;16.05;;;1.40;99.70;;;;;;4996331;28;20558;-81
2021/01/16 09:01:45;;;;;;;26.05;16.85;;;1.50;99.50;;;;;;4979064;28;20064;-82
2021/01/16 09:04:33;;;;;;;27.38;18.40;;;1.50;99.60;;;;;;4991428;28;20046;-81
2021/01/16 09:07:23;;;;;;;28.02;17.38;;;1.50;99.60;;;;;;4975136;28;20049;-82
2021/01/16 09:10:06;;;;;;;26.95;17.38;;;1.50;99.80;;;;;;5011753;28;20061;-84
2021/01/16 09:12:39;;;;;;;33.20;17.60;;;1.50;99.80;;;;;;5011239;28;20069;-84
2021/01/16 09:15:35;;;;;;;26.33;17.50;;;1.50;99.80;;;;;;4994946;28;20041;-82
2021/01/16 09:18:12;;;;;;;;;;;1.50;99.80;;;;;;4977986;28;20072;-81
2021/01/16 09:20:52;;;;;;;24.42;17.05;;;1.50;99.80;;;;;;4992963;28;19976;-82
2021/01/16 09:23:23;;;;;;;26.95;17.27;;;1.50;99.90;;;;;;4976576;28;20532;-78
2021/01/16 09:26:12;;;;;;;29.42;17.77;;;1.50;99.70;;;;;;4991840;28;20030;-81
2021/01/16 09:28:50;;;;;;;27.08;17.35;;;1.60;99.80;;;;;;4918273;29;20058;-82
2021/01/16 09:31:45;;;;;;;31.65;17.90;;;1.70;99.80;;;;;;4935975;29;20114;-83
2021/01/16 09:34:13;;;;;;;27.30;17.35;;;1.60;99.90;;;;;;4949032;28;20069;-80
2021/01/16 09:36:52;;;;;;;27.08;17.98;;;1.60;99.80;;;;;;4951562;29;20173;-84
2021/01/16 09:39:28;;;;;;;27.73;17.67;;;1.60;99.80;;;;;;4918539;29;20075;-83
2021/01/16 09:41:58;;;;;;;29.77;17.92;;;1.60;99.80;;;;;;4950454;29;20510;-83
2021/01/16 09:44:42;;;;;;;25.98;17.70;;;1.50;99.80;;;;;;4951985;28;20059;-81
2021/01/16 09:47:27;;;;;;;26.00;17.17;;;1.60;99.80;;;;;;4935094;29;20051;-85
2021/01/16 09:50:13;;;;;;;24.55;16.98;;;1.60;99.70;;;;;;4940784;29;20047;-82
2021/01/16 09:52:48;;;;;;;25.98;17.17;;;1.50;99.90;;;;;;4982773;28;20111;-83
2021/01/16 09:55:26;;;;;;;30.67;16.73;;;1.80;99.90;;;;;;4982578;28;20046;-84
2021/01/16 09:57:53;;;;;;;26.90;17.92;;;1.50;99.90;;;;;;4970238;28;20058;-82
2021/01/16 10:00:23;;;;;;;30.25;17.88;;;1.50;99.80;;;;;;5023074;28;20056;-84
2021/01/16 10:03:00;;;;;;;27.25;17.45;;;1.50;99.80;;;;;;5028513;28;20476;-80
2021/01/16 10:05:38;;;;;;;25.80;17.00;;;1.50;99.70;;;;;;5029946;28;20449;-81
2021/01/16 10:08:06;;;;;;;30.42;18.27;;;1.50;99.80;;;;;;5041916;28;20376;-80
2021/01/16 10:10:45;;;;;;;26.15;17.45;;;1.60;99.80;;;;;;5023770;28;20037;-87
2021/01/16 10:13:12;;;;;;;27.73;17.42;;;1.60;99.80;;;;;;5046014;28;20041;-86
2021/01/16 10:15:57;;;;;;;27.13;17.55;;;1.80;99.80;;;;;;5033154;28;20046;-84
2021/01/16 10:18:27;;;;;;;34.53;18.33;;;1.60;99.70;;;;;;5016928;28;20065;-85
2021/01/16 10:21:10;;;;;;;30.20;17.90;;;1.60;99.60;;;;;;5030484;28;20029;-83
2021/01/16 10:23:38;;;;;;;25.00;16.65;;;1.60;99.60;;;;;;5028152;28;20116;-83
2021/01/16 10:26:25;;;;;;;24.42;16.50;;;1.80;99.70;;;;;;5028859;28;20048;-80
2021/01/16 10:29:04;;;;;;;26.13;17.70;;;1.60;99.60;;;;;;5025436;28;20064;-83
2021/01/16 10:31:30;;;;;;;25.20;16.67;;;1.70;99.70;;;;;;5029071;28;20037;-83
2021/01/16 10:34:12;;;;;;;27.27;18.02;;;1.80;99.60;;;;;;5028893;28;20037;-80
2021/01/16 10:36:39;;;;;;;28.70;18.38;;;1.70;99.90;;;;;;5029040;28;20576;-83
2021/01/16 10:39:19;;;;;;;25.20;17.75;;;1.70;99.70;;;;;;5027708;28;20069;-81
2021/01/16 10:41:46;;;;;;;27.88;18.13;;;1.70;99.70;;;;;;5030056;28;20041;-82
2021/01/16 10:44:20;;;;;;;26.35;18.55;;;1.70;99.70;;;;;;5031778;28;20070;-82
2021/01/16 10:46:51;;;;;;;29.73;17.20;;;1.70;99.60;;;;;;5032343;28;20084;-81
2021/01/16 10:49:28;;;;;;;28.80;17.92;;;1.70;99.50;;;;;;5012597;28;20500;-78
2021/01/16 10:52:02;;;;;;;25.02;17.38;;;1.80;99.50;;;;;;5029889;28;20069;-82
2021/01/16 10:54:28;;;;;;;28.40;18.30;;;1.80;99.40;;;;;;5030888;28;20542;-81
2021/01/16 10:57:06;;;;;;;30.10;18.00;;;1.80;99.40;;;;;;5012955;28;20049;-81
2021/01/16 10:59:34;;;;;;;31.33;17.75;;;1.70;99.10;;;;;;5012212;28;20053;-81
2021/01/16 11:02:13;;;;;;;27.25;18.25;;;1.80;99.30;;;;;;5013595;28;20508;-81
2021/01/16 11:04:41;;;;;;;26.50;16.90;;;1.80;99.20;;;;;;5012006;28;20058;-82
2021/01/16 11:07:10;;;;;;;24.65;17.00;;;1.70;99.20;;;;;;5012263;28;20116;-81
2021/01/16 11:09:36;;;;;;;23.77;17.67;;;1.80;99.20;;;;;;5018419;28;20042;-81
2021/01/16 11:12:04;;;;;;;26.52;16.77;;;1.90;99.10;;;;;;5032058;28;20546;-82
2021/01/16 11:14:42;;;;;;;27.70;17.83;;;1.90;99.10;;;;;;5032850;28;20072;-81
2021/01/16 11:17:12;;;;;;;28.23;18.17;;;1.90;99.10;;;;;;5014779;28;20056;-81
2021/01/16 11:19:42;;;;;;;23.50;16.98;;;1.90;99.10;;;;;;5031425;28;20119;-80
2021/01/16 11:22:10;;;;;;;29.08;17.75;;;1.90;98.80;;;;;;5032859;28;20061;-81
2021/01/16 11:24:52;;;;;;;26.02;17.85;;;2.00;99.00;;;;;;5032187;28;20108;-81
2021/01/16 11:27:20;;;;;;;26.02;17.48;;;2.00;99.00;;;;;;5015586;28;20061;-80
2021/01/16 11:29:47;;;;;;;23.17;16.25;;;1.90;98.90;;;;;;5032651;28;20120;-80
2021/01/16 11:32:16;;;;;;;29.35;16.60;;;2.00;98.70;;;;;;5033092;28;20099;-81
2021/01/16 11:35:07;;;;;;;27.15;18.23;;;2.00;98.60;;;;;;5032852;28;20044;-81
2021/01/16 11:37:45;;;;;;;23.90;17.23;;;2.00;98.70;;;;;;5031321;28;20651;-80
2021/01/16 11:40:36;;;;;;;23.10;15.95;;;2.00;98.70;;;;;;5014550;28;20065;-81
2021/01/16 11:43:07;;;;;;;23.13;16.70;;;2.00;98.50;;;;;;5014907;28;20049;-81
2021/01/16 11:45:34;;;;;;;22.85;15.75;;;2.00;98.40;;;;;;5033073;28;20111;-82
2021/01/16 11:48:03;;;;;;;24.17;15.68;;;2.00;98.10;;;;;;5032313;28;20045;-81
2021/01/16 11:50:33;;;;;;;25.02;15.15;;;2.10;98.20;;;;;;5032406;28;20145;-80
2021/01/16 11:53:08;;;;;;;21.38;15.25;;;2.00;97.80;;;;;;5037573;28;20565;-82
2021/01/16 11:55:33;;;;;;;;;;;2.00;97.90;;;;;;5015567;28;20053;-81
2021/01/16 11:58:01;;;;;;;22.83;15.43;;;2.10;97.80;;;;;;5033553;28;19917;-81
2021/01/16 12:00:28;;;;;;;25.98;16.13;;;2.30;98.10;;;;;;5033001;28;20060;-83
2021/01/16 12:02:55;;;;;;;22.25;15.63;;;2.10;97.70;;;;;;5032828;28;20063;-79
2021/01/16 12:05:23;;;;;;;23.67;17.20;;;2.20;97.80;;;;;;4998163;28;20445;-80
2021/01/16 12:07:51;;;;;;;22.77;15.73;;;2.20;97.60;;;;;;5037084;28;20029;-80
2021/01/16 12:10:22;;;;;;;21.48;14.70;;;2.20;97.40;;;;;;5008968;28;20408;-80
2021/01/16 12:12:50;;;;;;;21.30;15.45;;;2.10;97.30;;;;;;5015247;28;20045;-82
2021/01/16 12:15:19;;;;;;;26.20;15.63;;;2.20;97.20;;;;;;5032065;28;20400;-80
2021/01/16 12:17:47;;;;;;;21.05;14.98;;;2.20;97.20;;;;;;5010795;28;20087;-80
2021/01/16 12:20:16;;;;;;;24.45;17.52;;;2.30;97.20;;;;;;5015724;28;20066;-81
2021/01/16 12:22:44;;;;;;;21.75;15.75;;;2.50;97.10;;;;;;5031906;28;20041;-81
2021/01/16 12:25:13;;;;;;;22.17;15.40;;;2.20;97.10;;;;;;5031698;28;20172;-80
2021/01/16 12:27:49;;;;;;;25.95;15.80;;;2.30;96.70;;;;;;5011805;28;20827;-81
2021/01/16 12:30:18;;;;;;;23.92;16.20;;;2.30;96.50;;;;;;5026469;28;20084;-81
2021/01/16 12:32:45;;;;;;;21.20;14.73;;;2.40;96.90;;;;;;5013397;28;20511;-80
2021/01/16 12:35:12;;;;;;;21.42;15.13;;;2.30;96.60;;;;;;5031851;28;20033;-81
2021/01/16 12:37:39;;;;;;;21.23;13.75;;;2.30;96.90;;;;;;5029556;28;20488;-81
2021/01/16 12:40:17;;;;;;;24.25;14.52;;;2.50;96.60;;;;;;5021774;28;20057;-81
2021/01/16 12:42:44;;;;;;;23.90;14.95;;;2.40;96.40;;;;;;5030356;28;20057;-80
2021/01/16 12:45:15;;;;;;;23.15;14.27;;;2.40;96.10;;;;;;5031014;28;20037;-83
2021/01/16 12:47:43;;;;;;;20.50;14.30;;;2.40;96.40;;;;;;5015193;28;20045;-83
2021/01/16 12:50:10;;;;;;;20.67;13.95;;;2.50;96.20;;;;;;5028991;28;20029;-80
2021/01/16 12:52:37;;;;;;;22.10;14.18;;;2.50;96.10;;;;;;5024950;28;20137;-80
2021/01/16 12:55:08;;;;;;;20.63;14.57;;;2.50;96.00;;;;;;5029318;28;20048;-82
2021/01/16 12:57:40;;;;;;;20.67;13.98;;;2.40;95.90;;;;;;5013889;28;20052;-80
2021/01/16 13:00:08;;;;;;;22.50;13.73;;;2.40;95.90;;;;;;5013709;28;20341;-80
2021/01/16 13:02:34;;;;;;;19.13;13.52;;;2.40;95.50;;;;;;5030425;28;20484;-81
2021/01/16 13:05:09;;;;;;;19.08;13.98;;;2.50;95.60;;;;;;5028227;28;20038;-81
2021/01/16 13:07:35;;;;;;;22.88;14.77;;;2.40;95.20;;;;;;5026444;28;20176;-81
2021/01/16 13:10:04;;;;;;;21.42;14.80;;;2.40;95.20;;;;;;5025544;28;20045;-83
2021/01/16 13:12:35;;;;;;;23.13;14.40;;;2.50;95.30;;;;;;5029341;28;20042;-82
2021/01/16 13:15:04;;;;;;;25.42;14.38;;;2.40;95.00;;;;;;5027815;28;20060;-84
2021/01/16 13:17:34;;;;;;;20.00;14.27;;;2.60;95.70;;;;;;5028358;28;20077;-82
2021/01/16 13:20:04;;;;;;;21.88;14.52;;;2.50;95.20;;;;;;5042469;28;20356;-81
2021/01/16 13:22:30;;;;;;;25.70;15.30;;;2.50;95.20;;;;;;5021856;28;20050;-82
2021/01/16 13:25:05;;;;;;;25.75;15.25;;;2.50;95.10;;;;;;5027614;28;20084;-82
2021/01/16 13:27:33;;;;;;;27.05;16.65;;;2.50;94.90;;;;;;5028703;28;20044;-81
2021/01/16 13:30:03;;;;;;;29.27;17.20;;;2.50;94.70;;;;;;5028809;28;20084;-80
2021/01/16 13:32:30;;;;;;;28.02;16.45;;;2.40;94.70;;;;;;5044325;28;20042;-80
2021/01/16 13:35:01;;;;;;;27.20;15.48;;;2.40;94.70;;;;;;5010268;28;20049;-82
2021/01/16 13:37:29;;;;;;;27.40;16.20;;;2.40;94.90;;;;;;5008066;28;20404;-80
2021/01/16 13:39:58;;;;;;;28.15;16.17;;;2.40;94.60;;;;;;5027003;28;20061;-80
2021/01/16 13:42:35;;;;;;;31.65;16.90;;;2.40;94.70;;;;;;5027795;28;20037;-80
2021/01/16 13:45:05;;;;;;;25.25;15.02;;;2.40;94.10;;;;;;5008442;28;20063;-80
2021/01/16 13:47:32;;;;;;;25.08;15.55;;;2.40;94.30;;;;;;5035474;28;20045;-82
2021/01/16 13:50:10;;;;;;;23.95;14.82;;;2.60;93.50;;;;;;5031667;28;20064;-80
2021/01/16 13:52:53;;;;;;;27.40;16.48;;;2.30;92.30;;;;;;5023664;28;20056;-83
2021/01/16 13:55:28;;;;;;;28.17;16.52;;;2.30;92.50;;;;;;5048739;28;20081;-83
2021/01/16 13:58:05;;;;;;;27.55;15.60;;;2.30;92.50;;;;;;5021191;28;20396;-80
2021/01/16 14:00:51;;;;;;;24.85;15.63;;;2.20;93.10;;;;;;5030043;28;20049;-81
2021/01/16 14:03:27;;;;;;;27.10;15.73;;;2.20;92.90;;;;;;4996690;28;20202;-79
2021/01/16 14:06:15;;;;;;;26.63;15.90;;;2.20;93.00;;;;;;5028683;28;20477;-79